sensor_id;sensor_type;location;lat;lon;timestamp;pressure;altitude;pressure_sealevel;temperature;humidity
27425;BME280;15244;49.088;11.886;2023-11-21T00:04:41;95223.53;;;10.69;54.85
27425;BME280;15244;49.088;11.886;2023-11-21T00:09:42;95223.53;;;10.69;54.78
27425;BME280;15244;49.088;11.886;2023-11-21T00:14:44;95216.50;;;10.68;54.71
27425;BME280;15244;49.088;11.886;2023-11-21T00:19:45;95233.66;;;10.65;55.16
27425;BME280;15244;49.088;11.886;2023-11-21T00:24:47;95237.56;;;10.60;55.21
27425;BME280;15244;49.088;11.886;2023-11-21T00:29:49;95234.50;;;10.58;55.17
27425;BME280;15244;49.088;11.886;2023-11-21T00:34:51;95237.59;;;10.57;55.23
27425;BME280;15244;49.088;11.886;2023-11-21T00:39:55;95235.25;;;10.55;55.23
27425;BME280;15244;49.088;11.886;2023-11-21T00:44:58;95244.59;;;10.58;55.27
27425;BME280;15244;49.088;11.886;2023-11-21T00:50:00;95240.72;;;10.59;55.55
27425;BME280;15244;49.088;11.886;2023-11-21T00:55:03;95243.44;;;10.59;55.50
27425;BME280;15244;49.088;11.886;2023-11-21T01:00:05;95246.56;;;10.57;55.79
27425;BME280;15244;49.088;11.886;2023-11-21T01:05:18;95250.03;;;10.58;55.75
27425;BME280;15244;49.088;11.886;2023-11-21T01:10:21;95244.59;;;10.58;55.84
27425;BME280;15244;49.088;11.886;2023-11-21T01:15:23;95239.53;;;10.60;55.84
27425;BME280;15244;49.088;11.886;2023-11-21T01:20:24;95237.19;;;10.62;55.50
27425;BME280;15244;49.088;11.886;2023-11-21T01:25:26;95242.25;;;10.60;55.92
27425;BME280;15244;49.088;11.886;2023-11-21T01:30:28;95244.59;;;10.61;56.18
27425;BME280;15244;49.088;11.886;2023-11-21T01:35:31;95234.84;;;10.64;55.95
27425;BME280;15244;49.088;11.886;2023-11-21T01:40:33;95236.00;;;10.63;55.64
27425;BME280;15244;49.088;11.886;2023-11-21T01:45:34;95232.94;;;10.61;55.98
27425;BME280;15244;49.088;11.886;2023-11-21T01:50:36;95232.94;;;10.54;55.45
27425;BME280;15244;49.088;11.886;2023-11-21T01:55:40;95236.84;;;10.49;55.99
27425;BME280;15244;49.088;11.886;2023-11-21T02:00:44;95231.81;;;10.40;55.82
27425;BME280;15244;49.088;11.886;2023-11-21T02:05:46;95239.22;;;10.36;55.64
27425;BME280;15244;49.088;11.886;2023-11-21T02:10:47;95223.66;;;10.37;55.81
27425;BME280;15244;49.088;11.886;2023-11-21T02:15:49;95218.56;;;10.35;55.85
27425;BME280;15244;49.088;11.886;2023-11-21T02:20:55;95227.94;;;10.34;55.96
27425;BME280;15244;49.088;11.886;2023-11-21T02:25:56;95219.75;;;10.34;55.31
27425;BME280;15244;49.088;11.886;2023-11-21T02:31:03;95215.47;;;10.37;55.16
27425;BME280;15244;49.088;11.886;2023-11-21T02:36:07;95222.88;;;10.36;55.30
27425;BME280;15244;49.088;11.886;2023-11-21T02:41:09;95210.41;;;10.35;55.08
27425;BME280;15244;49.088;11.886;2023-11-21T02:46:10;95209.25;;;10.33;55.26
27425;BME280;15244;49.088;11.886;2023-11-21T02:51:13;95206.13;;;10.34;55.50
27425;BME280;15244;49.088;11.886;2023-11-21T02:56:17;95199.56;;;10.28;55.45
27425;BME280;15244;49.088;11.886;2023-11-21T03:01:18;95193.69;;;10.26;55.35
27425;BME280;15244;49.088;11.886;2023-11-21T03:06:20;95184.34;;;10.24;55.75
27425;BME280;15244;49.088;11.886;2023-11-21T03:11:22;95186.66;;;10.25;55.60
27425;BME280;15244;49.088;11.886;2023-11-21T03:16:23;95185.16;;;10.20;55.33
27425;BME280;15244;49.088;11.886;2023-11-21T03:21:25;95182.84;;;10.15;55.68
27425;BME280;15244;49.088;11.886;2023-11-21T03:26:27;95183.59;;;10.16;55.71
27425;BME280;15244;49.088;11.886;2023-11-21T03:31:29;95185.94;;;10.14;55.69
27425;BME280;15244;49.088;11.886;2023-11-21T03:36:30;95183.97;;;10.14;56.06
27425;BME280;15244;49.088;11.886;2023-11-21T03:41:32;95192.56;;;10.13;55.77
27425;BME280;15244;49.088;11.886;2023-11-21T03:46:37;95187.47;;;10.15;55.76
27425;BME280;15244;49.088;11.886;2023-11-21T03:51:39;95192.56;;;10.13;55.66
27425;BME280;15244;49.088;11.886;2023-11-21T03:56:41;95191.41;;;10.07;55.70
27425;BME280;15244;49.088;11.886;2023-11-21T04:01:42;95196.06;;;10.06;56.18
27425;BME280;15244;49.088;11.886;2023-11-21T04:06:44;95194.13;;;10.07;55.83
27425;BME280;15244;49.088;11.886;2023-11-21T04:11:45;95198.00;;;10.09;56.22
27425;BME280;15244;49.088;11.886;2023-11-21T04:16:47;95202.31;;;10.10;56.05
27425;BME280;15244;49.088;11.886;2023-11-21T04:21:49;95200.72;;;10.13;55.80
27425;BME280;15244;49.088;11.886;2023-11-21T04:26:51;95211.63;;;10.13;55.82
27425;BME280;15244;49.088;11.886;2023-11-21T04:31:53;95213.16;;;10.14;55.96
27425;BME280;15244;49.088;11.886;2023-11-21T04:36:54;95211.22;;;10.14;55.94
27425;BME280;15244;49.088;11.886;2023-11-21T04:41:56;95209.66;;;10.17;56.30
27425;BME280;15244;49.088;11.886;2023-11-21T04:46:57;95211.59;;;10.20;56.12
27425;BME280;15244;49.088;11.886;2023-11-21T04:51:59;95216.66;;;10.22;55.96
27425;BME280;15244;49.088;11.886;2023-11-21T04:57:01;95221.72;;;10.23;56.31
27425;BME280;15244;49.088;11.886;2023-11-21T05:02:02;95221.31;;;10.25;56.51
27425;BME280;15244;49.088;11.886;2023-11-21T05:07:04;95218.22;;;10.26;56.06
27425;BME280;15244;49.088;11.886;2023-11-21T05:12:06;95223.66;;;10.26;56.35
27425;BME280;15244;49.088;11.886;2023-11-21T05:17:10;95221.34;;;10.28;56.19
27425;BME280;15244;49.088;11.886;2023-11-21T05:22:12;95222.91;;;10.29;56.49
27425;BME280;15244;49.088;11.886;2023-11-21T05:27:13;95217.03;;;10.27;56.53
27425;BME280;15244;49.088;11.886;2023-11-21T05:32:15;95215.09;;;10.28;56.29
27425;BME280;15244;49.088;11.886;2023-11-21T05:37:20;95215.50;;;10.30;55.97
27425;BME280;15244;49.088;11.886;2023-11-21T05:42:22;95229.13;;;10.30;56.29
27425;BME280;15244;49.088;11.886;2023-11-21T05:47:25;95228.34;;;10.29;56.17
27425;BME280;15244;49.088;11.886;2023-11-21T05:52:30;95220.16;;;10.29;55.96
27425;BME280;15244;49.088;11.886;2023-11-21T05:57:31;95230.69;;;10.31;56.06
27425;BME280;15244;49.088;11.886;2023-11-21T06:02:33;95239.63;;;10.31;55.82
27425;BME280;15244;49.088;11.886;2023-11-21T06:07:34;95242.75;;;10.30;55.84
27425;BME280;15244;49.088;11.886;2023-11-21T06:12:37;95249.72;;;10.27;56.11
27425;BME280;15244;49.088;11.886;2023-11-21T06:17:42;95248.19;;;10.26;56.17
27425;BME280;15244;49.088;11.886;2023-11-21T06:22:49;95265.69;;;10.25;55.78
27425;BME280;15244;49.088;11.886;2023-11-21T06:27:51;95263.34;;;10.24;56.08
27425;BME280;15244;49.088;11.886;2023-11-21T06:32:57;95262.19;;;10.25;56.31
27425;BME280;15244;49.088;11.886;2023-11-21T06:37:59;95262.19;;;10.25;56.51
27425;BME280;15244;49.088;11.886;2023-11-21T06:43:01;95266.06;;;10.27;56.46
27425;BME280;15244;49.088;11.886;2023-11-21T06:48:02;95271.91;;;10.26;56.37
27425;BME280;15244;49.088;11.886;2023-11-21T06:53:04;95278.56;;;10.28;56.24
27425;BME280;15244;49.088;11.886;2023-11-21T06:58:10;95282.84;;;10.29;56.38
27425;BME280;15244;49.088;11.886;2023-11-21T07:03:12;95279.72;;;10.31;56.36
27425;BME280;15244;49.088;11.886;2023-11-21T07:08:14;95283.63;;;10.33;56.66
27425;BME280;15244;49.088;11.886;2023-11-21T07:13:15;95288.28;;;10.36;56.38
27425;BME280;15244;49.088;11.886;2023-11-21T07:18:17;95292.16;;;10.39;56.46
27425;BME280;15244;49.088;11.886;2023-11-21T07:23:19;95292.13;;;10.43;56.54
27425;BME280;15244;49.088;11.886;2023-11-21T07:28:24;95291.00;;;10.44;56.80
27425;BME280;15244;49.088;11.886;2023-11-21T07:33:27;95296.81;;;10.46;56.71
27425;BME280;15244;49.088;11.886;2023-11-21T07:38:28;95306.94;;;10.49;57.08
27425;BME280;15244;49.088;11.886;2023-11-21T07:43:30;95309.66;;;10.49;56.55
27425;BME280;15244;49.088;11.886;2023-11-21T07:48:36;95317.44;;;10.47;57.11
27425;BME280;15244;49.088;11.886;2023-11-21T07:53:38;95320.19;;;10.47;57.21
27425;BME280;15244;49.088;11.886;2023-11-21T07:58:39;95320.94;;;10.47;56.95
27425;BME280;15244;49.088;11.886;2023-11-21T08:03:41;95327.56;;;10.53;57.06
27425;BME280;15244;49.088;11.886;2023-11-21T08:08:43;95327.16;;;10.55;57.21
27425;BME280;15244;49.088;11.886;2023-11-21T08:13:44;95330.69;;;10.52;57.21
27425;BME280;15244;49.088;11.886;2023-11-21T08:18:47;95330.69;;;10.52;57.42
27425;BME280;15244;49.088;11.886;2023-11-21T08:23:48;95336.50;;;10.50;57.23
27425;BME280;15244;49.088;11.886;2023-11-21T08:28:55;95347.00;;;10.55;57.51
27425;BME280;15244;49.088;11.886;2023-11-21T08:33:58;95347.41;;;10.61;57.55
27425;BME280;15244;49.088;11.886;2023-11-21T08:38:59;95350.50;;;10.63;57.23
27425;BME280;15244;49.088;11.886;2023-11-21T08:44:01;95353.63;;;10.65;57.39
27425;BME280;15244;49.088;11.886;2023-11-21T08:49:03;95352.47;;;10.66;57.69
27425;BME280;15244;49.088;11.886;2023-11-21T08:54:05;95362.16;;;10.71;57.44
27425;BME280;15244;49.088;11.886;2023-11-21T08:59:09;95367.63;;;10.71;57.52
27425;BME280;15244;49.088;11.886;2023-11-21T09:04:11;95370.75;;;10.76;57.18
27425;BME280;15244;49.088;11.886;2023-11-21T09:09:12;95367.22;;;10.79;57.34
27425;BME280;15244;49.088;11.886;2023-11-21T09:14:15;95377.72;;;10.81;57.54
27425;BME280;15244;49.088;11.886;2023-11-21T09:19:18;95376.97;;;10.80;57.14
27425;BME280;15244;49.088;11.886;2023-11-21T09:24:20;95376.16;;;10.83;57.41
27425;BME280;15244;49.088;11.886;2023-11-21T09:29:22;95387.06;;;10.91;57.54
27425;BME280;15244;49.088;11.886;2023-11-21T09:34:24;95385.88;;;10.95;57.56
27425;BME280;15244;49.088;11.886;2023-11-21T09:39:25;95389.38;;;10.99;57.12
27425;BME280;15244;49.088;11.886;2023-11-21T09:44:35;95391.31;;;11.02;57.15
27425;BME280;15244;49.088;11.886;2023-11-21T09:49:40;95382.75;;;11.04;56.86
27425;BME280;15244;49.088;11.886;2023-11-21T09:54:42;95383.13;;;11.06;57.31
27425;BME280;15244;49.088;11.886;2023-11-21T09:59:45;95392.84;;;11.11;56.97
27425;BME280;15244;49.088;11.886;2023-11-21T10:04:47;95389.72;;;11.16;57.28
27425;BME280;15244;49.088;11.886;2023-11-21T10:09:50;95388.16;;;11.18;57.21
27425;BME280;15244;49.088;11.886;2023-11-21T10:14:54;95384.25;;;11.23;57.17
27425;BME280;15244;49.088;11.886;2023-11-21T10:19:57;95385.81;;;11.20;56.84
27425;BME280;15244;49.088;11.886;2023-11-21T10:25:02;95386.19;;;11.19;56.82
27425;BME280;15244;49.088;11.886;2023-11-21T10:30:03;95395.53;;;11.21;56.59
27425;BME280;15244;49.088;11.886;2023-11-21T10:35:07;95397.88;;;11.23;56.67
27425;BME280;15244;49.088;11.886;2023-11-21T10:40:11;95395.53;;;11.25;56.81
27425;BME280;15244;49.088;11.886;2023-11-21T10:45:14;95398.63;;;11.31;56.97
27425;BME280;15244;49.088;11.886;2023-11-21T10:50:18;95397.44;;;11.42;56.87
27425;BME280;15244;49.088;11.886;2023-11-21T10:55:20;95394.25;;;11.55;57.10
27425;BME280;15244;49.088;11.886;2023-11-21T11:00:24;95387.56;;;11.63;56.95
27425;BME280;15244;49.088;11.886;2023-11-21T11:05:28;95388.31;;;11.67;56.80
27425;BME280;15244;49.088;11.886;2023-11-21T11:10:31;95391.03;;;11.67;56.17
27425;BME280;15244;49.088;11.886;2023-11-21T11:15:33;95384.44;;;11.68;56.05
27425;BME280;15244;49.088;11.886;2023-11-21T11:20:38;95389.13;;;11.67;56.02
27425;BME280;15244;49.088;11.886;2023-11-21T11:26:06;95386.75;;;11.69;55.83
27425;BME280;15244;49.088;11.886;2023-11-21T11:36:28;95380.09;;;11.74;55.64
27425;BME280;15244;49.088;11.886;2023-11-21T11:41:32;95387.88;;;11.79;55.88
27425;BME280;15244;49.088;11.886;2023-11-21T11:46:43;95380.06;;;11.81;55.82
27425;BME280;15244;49.088;11.886;2023-11-21T11:51:48;95387.06;;;11.86;55.83
27425;BME280;15244;49.088;11.886;2023-11-21T11:56:49;95390.56;;;11.90;55.89
27425;BME280;15244;49.088;11.886;2023-11-21T12:01:51;95380.81;;;11.92;56.23
27425;BME280;15244;49.088;11.886;2023-11-21T12:06:52;95391.69;;;11.96;56.11
27425;BME280;15244;49.088;11.886;2023-11-21T12:11:55;95395.59;;;11.99;56.11
27425;BME280;15244;49.088;11.886;2023-11-21T12:16:58;95395.25;;;11.93;55.64
27425;BME280;15244;49.088;11.886;2023-11-21T12:22:00;95388.25;;;11.81;55.95
27425;BME280;15244;49.088;11.886;2023-11-21T12:27:02;95403.50;;;11.71;55.69
27425;BME280;15244;49.088;11.886;2023-11-21T12:32:04;95397.31;;;11.64;55.88
27425;BME280;15244;49.088;11.886;2023-11-21T12:37:08;95401.63;;;11.61;56.21
27425;BME280;15244;49.088;11.886;2023-11-21T12:42:09;95407.91;;;11.55;56.28
27425;BME280;15244;49.088;11.886;2023-11-21T12:47:17;95409.88;;;11.50;56.58
27425;BME280;15244;49.088;11.886;2023-11-21T12:52:18;95409.88;;;11.50;56.44
27425;BME280;15244;49.088;11.886;2023-11-21T12:57:20;95414.13;;;11.52;56.75
27425;BME280;15244;49.088;11.886;2023-11-21T13:02:21;95421.16;;;11.60;57.05
27425;BME280;15244;49.088;11.886;2023-11-21T13:07:24;95410.16;;;11.67;57.21
27425;BME280;15244;49.088;11.886;2023-11-21T13:12:26;95420.28;;;11.74;57.35
27425;BME280;15244;49.088;11.886;2023-11-21T13:17:27;95423.44;;;11.68;56.93
27425;BME280;15244;49.088;11.886;2023-11-21T13:22:29;95429.31;;;11.63;56.42
27425;BME280;15244;49.088;11.886;2023-11-21T13:27:31;95427.34;;;11.64;56.52
27425;BME280;15244;49.088;11.886;2023-11-21T13:32:34;95435.16;;;11.62;56.28
27425;BME280;15244;49.088;11.886;2023-11-21T13:37:35;95430.06;;;11.64;56.51
27425;BME280;15244;49.088;11.886;2023-11-21T13:42:38;95439.81;;;11.68;56.73
27425;BME280;15244;49.088;11.886;2023-11-21T13:47:39;95449.56;;;11.73;56.30
27425;BME280;15244;49.088;11.886;2023-11-21T13:52:41;95456.16;;;11.72;56.87
27425;BME280;15244;49.088;11.886;2023-11-21T13:57:43;95460.47;;;11.73;56.71
27425;BME280;15244;49.088;11.886;2023-11-21T14:02:46;95454.63;;;11.71;57.06
27425;BME280;15244;49.088;11.886;2023-11-21T14:07:50;95464.75;;;11.74;56.94
27425;BME280;15244;49.088;11.886;2023-11-21T14:12:51;95465.53;;;11.78;56.74
27425;BME280;15244;49.088;11.886;2023-11-21T14:17:53;95465.88;;;11.84;56.94
27425;BME280;15244;49.088;11.886;2023-11-21T14:22:56;95469.00;;;11.89;57.16
27425;BME280;15244;49.088;11.886;2023-11-21T14:27:57;95476.41;;;11.92;56.90
27425;BME280;15244;49.088;11.886;2023-11-21T14:32:59;95477.19;;;11.89;56.99
27425;BME280;15244;49.088;11.886;2023-11-21T14:38:02;95476.81;;;11.84;56.87
27425;BME280;15244;49.088;11.886;2023-11-21T14:43:06;95472.16;;;11.77;56.67
27425;BME280;15244;49.088;11.886;2023-11-21T14:48:07;95478.84;;;11.65;56.43
27425;BME280;15244;49.088;11.886;2023-11-21T14:53:17;95482.75;;;11.61;56.72
27425;BME280;15244;49.088;11.886;2023-11-21T14:58:37;95483.97;;;11.53;56.38
27425;BME280;15244;49.088;11.886;2023-11-21T15:03:42;95487.88;;;11.48;56.41
27425;BME280;15244;49.088;11.886;2023-11-21T15:08:57;95501.16;;;11.42;56.26
27425;BME280;15244;49.088;11.886;2023-11-21T15:14:22;95500.38;;;11.31;56.18
27425;BME280;15244;49.088;11.886;2023-11-21T15:19:26;95510.53;;;11.27;56.07
27425;BME280;15244;49.088;11.886;2023-11-21T15:24:29;95513.25;;;11.23;56.50
27425;BME280;15244;49.088;11.886;2023-11-21T15:29:31;95516.41;;;11.22;56.26
27425;BME280;15244;49.088;11.886;2023-11-21T15:34:33;95518.72;;;11.16;56.16
27425;BME280;15244;49.088;11.886;2023-11-21T15:39:35;95530.81;;;11.15;55.78
27425;BME280;15244;49.088;11.886;2023-11-21T15:44:37;95526.94;;;11.13;56.04
27425;BME280;15244;49.088;11.886;2023-11-21T15:49:40;95534.72;;;11.11;56.10
27425;BME280;15244;49.088;11.886;2023-11-21T15:54:41;95530.06;;;11.07;55.62
27425;BME280;15244;49.088;11.886;2023-11-21T15:59:48;95533.97;;;11.06;55.76
27425;BME280;15244;49.088;11.886;2023-11-21T16:04:49;95535.53;;;11.04;55.91
27425;BME280;15244;49.088;11.886;2023-11-21T16:09:51;95543.69;;;11.00;55.71
27425;BME280;15244;49.088;11.886;2023-11-21T16:14:52;95552.66;;;10.97;55.80
27425;BME280;15244;49.088;11.886;2023-11-21T16:19:54;95551.09;;;10.93;55.76
27425;BME280;15244;49.088;11.886;2023-11-21T16:25:00;95557.72;;;10.88;55.60
27425;BME280;15244;49.088;11.886;2023-11-21T16:30:04;95565.50;;;10.82;55.71
27425;BME280;15244;49.088;11.886;2023-11-21T16:35:07;95568.25;;;10.79;55.74
27425;BME280;15244;49.088;11.886;2023-11-21T16:40:10;95569.00;;;10.76;55.57
27425;BME280;15244;49.088;11.886;2023-11-21T16:45:12;95577.19;;;10.72;55.58
27425;BME280;15244;49.088;11.886;2023-11-21T16:50:13;95586.53;;;10.68;55.55
27425;BME280;15244;49.088;11.886;2023-11-21T16:55:15;95586.50;;;10.60;55.48
27425;BME280;15244;49.088;11.886;2023-11-21T17:00:17;95603.66;;;10.54;55.74
27425;BME280;15244;49.088;11.886;2023-11-21T17:05:22;95609.06;;;10.50;55.81
27425;BME280;15244;49.088;11.886;2023-11-21T17:10:24;95612.56;;;10.47;56.13
27425;BME280;15244;49.088;11.886;2023-11-21T17:15:25;95619.97;;;10.47;55.83
27425;BME280;15244;49.088;11.886;2023-11-21T17:20:31;95632.44;;;10.44;55.78
27425;BME280;15244;49.088;11.886;2023-11-21T17:25:33;95634.75;;;10.42;56.19
27425;BME280;15244;49.088;11.886;2023-11-21T17:30:34;95634.75;;;10.42;55.83
27425;BME280;15244;49.088;11.886;2023-11-21T17:35:36;95640.97;;;10.43;55.95
27425;BME280;15244;49.088;11.886;2023-11-21T17:40:39;95645.66;;;10.42;55.73
27425;BME280;15244;49.088;11.886;2023-11-21T17:45:43;95642.53;;;10.40;56.00
27425;BME280;15244;49.088;11.886;2023-11-21T17:50:47;95647.56;;;10.38;56.33
27425;BME280;15244;49.088;11.886;2023-11-21T17:55:49;95652.63;;;10.29;55.95
27425;BME280;15244;49.088;11.886;2023-11-21T18:00:53;95643.97;;;10.16;56.43
27425;BME280;15244;49.088;11.886;2023-11-21T18:05:55;95650.56;;;10.11;56.50
27425;BME280;15244;49.088;11.886;2023-11-21T18:10:56;95661.81;;;10.06;56.32
27425;BME280;15244;49.088;11.886;2023-11-21T18:16:02;95660.66;;;10.04;56.20
27425;BME280;15244;49.088;11.886;2023-11-21T18:21:04;95658.28;;;10.02;56.59
27425;BME280;15244;49.088;11.886;2023-11-21T18:26:08;95675.44;;;10.03;56.56
27425;BME280;15244;49.088;11.886;2023-11-21T18:31:10;95678.94;;;10.03;56.63
27425;BME280;15244;49.088;11.886;2023-11-21T18:36:12;95679.72;;;10.04;56.40
27425;BME280;15244;49.088;11.886;2023-11-21T18:41:21;95687.09;;;10.03;56.47
27425;BME280;15244;49.088;11.886;2023-11-21T18:46:26;95682.84;;;10.06;56.50
27425;BME280;15244;49.088;11.886;2023-11-21T18:51:29;95690.63;;;10.07;56.79
27425;BME280;15244;49.088;11.886;2023-11-21T18:56:31;95698.44;;;10.12;56.54
27425;BME280;15244;49.088;11.886;2023-11-21T19:01:33;95711.28;;;10.12;56.63
27425;BME280;15244;49.088;11.886;2023-11-21T19:06:35;95710.84;;;10.06;56.54
27425;BME280;15244;49.088;11.886;2023-11-21T19:11:37;95715.13;;;10.04;56.61
27425;BME280;15244;49.088;11.886;2023-11-21T19:16:39;95719.03;;;10.03;56.73
27425;BME280;15244;49.088;11.886;2023-11-21T19:21:41;95727.56;;;10.05;56.92
27425;BME280;15244;49.088;11.886;2023-11-21T19:26:43;95737.69;;;10.01;56.63
27425;BME280;15244;49.088;11.886;2023-11-21T19:31:47;95749.72;;;9.99;56.88
27425;BME280;15244;49.088;11.886;2023-11-21T19:36:50;95755.94;;;9.96;56.74
27425;BME280;15244;49.088;11.886;2023-11-21T19:41:53;95770.31;;;9.97;57.11
27425;BME280;15244;49.088;11.886;2023-11-21T19:46:56;95766.06;;;9.99;56.79
27425;BME280;15244;49.088;11.886;2023-11-21T19:51:59;95771.13;;;10.01;56.95
27425;BME280;15244;49.088;11.886;2023-11-21T19:57:02;95777.72;;;10.00;57.02
27425;BME280;15244;49.088;11.886;2023-11-21T20:02:06;95779.66;;;9.96;56.84
27425;BME280;15244;49.088;11.886;2023-11-21T20:07:09;95782.69;;;9.87;57.07
27425;BME280;15244;49.088;11.886;2023-11-21T20:12:12;95790.38;;;9.74;56.85
27425;BME280;15244;49.088;11.886;2023-11-21T20:17:14;95801.94;;;9.64;57.42
27425;BME280;15244;49.088;11.886;2023-11-21T20:22:17;95804.94;;;9.52;57.35
27425;BME280;15244;49.088;11.886;2023-11-21T20:27:20;95812.66;;;9.46;57.80
27425;BME280;15244;49.088;11.886;2023-11-21T20:32:22;95817.69;;;9.44;57.96
27425;BME280;15244;49.088;11.886;2023-11-21T20:37:26;95817.66;;;9.41;57.90
27425;BME280;15244;49.088;11.886;2023-11-21T20:42:29;95818.03;;;9.39;57.72
27425;BME280;15244;49.088;11.886;2023-11-21T20:47:31;95821.50;;;9.36;58.32
27425;BME280;15244;49.088;11.886;2023-11-21T20:52:34;95827.69;;;9.33;58.21
27425;BME280;15244;49.088;11.886;2023-11-21T20:57:36;95837.03;;;9.32;58.16
27425;BME280;15244;49.088;11.886;2023-11-21T21:02:40;95840.53;;;9.32;58.27
27425;BME280;15244;49.088;11.886;2023-11-21T21:07:42;95837.31;;;9.23;58.51
27425;BME280;15244;49.088;11.886;2023-11-21T21:12:47;95846.91;;;9.14;58.39
27425;BME280;15244;49.088;11.886;2023-11-21T21:17:51;95851.97;;;9.11;58.46
27425;BME280;15244;49.088;11.886;2023-11-21T21:22:53;95855.81;;;9.10;58.60
27425;BME280;15244;49.088;11.886;2023-11-21T21:27:59;95862.25;;;8.99;58.52
27425;BME280;15244;49.088;11.886;2023-11-21T21:33:02;95882.31;;;8.87;58.30
27425;BME280;15244;49.088;11.886;2023-11-21T21:38:05;95876.66;;;8.69;58.18
27425;BME280;15244;49.088;11.886;2023-11-21T21:43:08;95879.72;;;8.67;58.11
27425;BME280;15244;49.088;11.886;2023-11-21T21:48:10;95878.91;;;8.63;57.93
27425;BME280;15244;49.088;11.886;2023-11-21T21:53:13;95896.31;;;8.59;57.89
27425;BME280;15244;49.088;11.886;2023-11-21T21:58:15;95905.75;;;8.42;57.50
27425;BME280;15244;49.088;11.886;2023-11-21T22:03:18;95916.53;;;8.38;57.63
27425;BME280;15244;49.088;11.886;2023-11-21T22:08:20;95926.13;;;8.32;57.85
27425;BME280;15244;49.088;11.886;2023-11-21T22:13:21;95931.94;;;8.31;57.55
27425;BME280;15244;49.088;11.886;2023-11-21T22:18:25;95940.72;;;8.43;57.55
27425;BME280;15244;49.088;11.886;2023-11-21T22:23:27;95926.88;;;8.52;57.26
27425;BME280;15244;49.088;11.886;2023-11-21T22:28:29;95924.81;;;8.45;56.82
27425;BME280;15244;49.088;11.886;2023-11-21T22:33:32;95928.94;;;8.36;56.36
27425;BME280;15244;49.088;11.886;2023-11-21T22:38:34;95924.75;;;8.19;55.77
27425;BME280;15244;49.088;11.886;2023-11-21T22:43:37;95934.47;;;7.97;55.78
27425;BME280;15244;49.088;11.886;2023-11-21T22:48:38;95932.34;;;7.87;55.77
27425;BME280;15244;49.088;11.886;2023-11-21T22:53:41;95937.59;;;7.76;55.58
27425;BME280;15244;49.088;11.886;2023-11-21T22:58:42;95949.16;;;7.73;55.64
27425;BME280;15244;49.088;11.886;2023-11-21T23:03:46;95954.50;;;7.69;55.82
27425;BME280;15244;49.088;11.886;2023-11-21T23:08:48;95957.59;;;7.68;55.84
27425;BME280;15244;49.088;11.886;2023-11-21T23:13:50;95953.44;;;7.54;55.59
27425;BME280;15244;49.088;11.886;2023-11-21T23:18:52;95952.75;;;7.38;55.54
27425;BME280;15244;49.088;11.886;2023-11-21T23:23:58;95971.03;;;7.22;56.01
27425;BME280;15244;49.088;11.886;2023-11-21T23:29:10;95960.03;;;7.14;55.99
27425;BME280;15244;49.088;11.886;2023-11-21T23:34:12;95957.94;;;7.08;56.10
27425;BME280;15244;49.088;11.886;2023-11-21T23:39:14;95959.72;;;7.00;56.25
27425;BME280;15244;49.088;11.886;2023-11-21T23:44:18;95963.03;;;6.93;56.31
27425;BME280;15244;49.088;11.886;2023-11-21T23:49:22;95967.44;;;6.82;56.38
27425;BME280;15244;49.088;11.886;2023-11-21T23:54:28;95973.06;;;6.73;56.25
27425;BME280;15244;49.088;11.886;2023-11-21T23:59:29;95977.78;;;6.77;55.92
